sensor_id;sensor_type;location;lat;lon;timestamp;P1;durP1;ratioP1;P2;durP2;ratioP2
50988;SDS011;37008;52.210;21.112;2022-08-21T00:00:46;7.00;;;5.10;;
50988;SDS011;37008;52.210;21.112;2022-08-21T00:03:12;9.05;;;5.38;;
50988;SDS011;37008;52.210;21.112;2022-08-21T00:05:40;7.57;;;5.22;;
50988;SDS011;37008;52.210;21.112;2022-08-21T00:08:08;11.55;;;5.50;;
50988;SDS011;37008;52.210;21.112;2022-08-21T00:10:34;9.18;;;5.50;;
50988;SDS011;37008;52.210;21.112;2022-08-21T00:13:01;7.03;;;5.30;;
50988;SDS011;37008;52.210;21.112;2022-08-21T00:15:29;7.57;;;5.60;;
50988;SDS011;37008;52.210;21.112;2022-08-21T00:17:57;9.85;;;5.28;;
50988;SDS011;37008;52.210;21.112;2022-08-21T00:20:24;6.72;;;5.13;;
50988;SDS011;37008;52.210;21.112;2022-08-21T00:22:51;7.45;;;5.45;;
50988;SDS011;37008;52.210;21.112;2022-08-21T00:25:17;6.85;;;5.88;;
50988;SDS011;37008;52.210;21.112;2022-08-21T00:27:44;7.95;;;5.65;;
50988;SDS011;37008;52.210;21.112;2022-08-21T00:30:11;7.20;;;5.28;;
50988;SDS011;37008;52.210;21.112;2022-08-21T00:32:39;12.35;;;5.18;;
50988;SDS011;37008;52.210;21.112;2022-08-21T00:35:10;7.40;;;5.25;;
50988;SDS011;37008;52.210;21.112;2022-08-21T00:37:40;7.45;;;5.90;;
50988;SDS011;37008;52.210;21.112;2022-08-21T00:40:07;7.50;;;5.50;;
50988;SDS011;37008;52.210;21.112;2022-08-21T00:42:36;10.00;;;6.15;;
50988;SDS011;37008;52.210;21.112;2022-08-21T00:45:02;8.73;;;5.88;;
50988;SDS011;37008;52.210;21.112;2022-08-21T00:47:28;6.78;;;5.57;;
50988;SDS011;37008;52.210;21.112;2022-08-21T00:49:54;9.35;;;5.55;;
50988;SDS011;37008;52.210;21.112;2022-08-21T00:52:28;8.82;;;5.50;;
50988;SDS011;37008;52.210;21.112;2022-08-21T00:54:57;9.52;;;5.63;;
50988;SDS011;37008;52.210;21.112;2022-08-21T00:57:28;5.95;;;5.13;;
50988;SDS011;37008;52.210;21.112;2022-08-21T00:59:57;8.88;;;5.75;;
50988;SDS011;37008;52.210;21.112;2022-08-21T01:02:26;7.93;;;5.60;;
50988;SDS011;37008;52.210;21.112;2022-08-21T01:04:52;10.35;;;5.50;;
50988;SDS011;37008;52.210;21.112;2022-08-21T01:07:18;8.27;;;5.45;;
50988;SDS011;37008;52.210;21.112;2022-08-21T01:09:45;7.40;;;5.43;;
50988;SDS011;37008;52.210;21.112;2022-08-21T01:12:14;8.20;;;6.10;;
50988;SDS011;37008;52.210;21.112;2022-08-21T01:14:40;8.52;;;5.50;;
50988;SDS011;37008;52.210;21.112;2022-08-21T01:17:13;10.25;;;5.70;;
50988;SDS011;37008;52.210;21.112;2022-08-21T01:19:40;8.15;;;6.10;;
50988;SDS011;37008;52.210;21.112;2022-08-21T01:22:06;7.45;;;6.03;;
50988;SDS011;37008;52.210;21.112;2022-08-21T01:24:32;10.40;;;6.35;;
50988;SDS011;37008;52.210;21.112;2022-08-21T01:26:59;10.65;;;5.63;;
50988;SDS011;37008;52.210;21.112;2022-08-21T01:32:05;9.77;;;6.20;;
50988;SDS011;37008;52.210;21.112;2022-08-21T01:34:34;9.05;;;6.25;;
50988;SDS011;37008;52.210;21.112;2022-08-21T01:37:03;9.88;;;5.97;;
50988;SDS011;37008;52.210;21.112;2022-08-21T01:39:29;12.13;;;6.22;;
50988;SDS011;37008;52.210;21.112;2022-08-21T01:41:55;8.70;;;6.82;;
50988;SDS011;37008;52.210;21.112;2022-08-21T01:44:23;9.55;;;6.22;;
50988;SDS011;37008;52.210;21.112;2022-08-21T01:46:49;12.30;;;6.20;;
50988;SDS011;37008;52.210;21.112;2022-08-21T01:49:15;8.18;;;6.20;;
50988;SDS011;37008;52.210;21.112;2022-08-21T01:51:41;7.88;;;6.30;;
50988;SDS011;37008;52.210;21.112;2022-08-21T01:54:08;9.80;;;6.22;;
50988;SDS011;37008;52.210;21.112;2022-08-21T01:56:37;8.80;;;5.78;;
50988;SDS011;37008;52.210;21.112;2022-08-21T01:59:05;10.43;;;6.72;;
50988;SDS011;37008;52.210;21.112;2022-08-21T02:01:31;9.18;;;6.38;;
50988;SDS011;37008;52.210;21.112;2022-08-21T02:03:56;18.70;;;6.97;;
50988;SDS011;37008;52.210;21.112;2022-08-21T02:06:24;8.95;;;6.32;;
50988;SDS011;37008;52.210;21.112;2022-08-21T02:08:50;10.82;;;7.00;;
50988;SDS011;37008;52.210;21.112;2022-08-21T02:11:16;8.90;;;6.70;;
50988;SDS011;37008;52.210;21.112;2022-08-21T02:13:42;11.45;;;7.05;;
50988;SDS011;37008;52.210;21.112;2022-08-21T02:16:07;10.30;;;7.30;;
50988;SDS011;37008;52.210;21.112;2022-08-21T02:18:34;10.50;;;6.65;;
50988;SDS011;37008;52.210;21.112;2022-08-21T02:21:00;13.13;;;6.53;;
50988;SDS011;37008;52.210;21.112;2022-08-21T02:23:26;9.05;;;6.43;;
50988;SDS011;37008;52.210;21.112;2022-08-21T02:25:52;9.68;;;7.10;;
50988;SDS011;37008;52.210;21.112;2022-08-21T02:28:17;8.05;;;5.95;;
50988;SDS011;37008;52.210;21.112;2022-08-21T02:30:45;8.20;;;6.65;;
50988;SDS011;37008;52.210;21.112;2022-08-21T02:33:13;9.25;;;7.00;;
50988;SDS011;37008;52.210;21.112;2022-08-21T02:35:40;9.27;;;6.57;;
50988;SDS011;37008;52.210;21.112;2022-08-21T02:38:08;12.20;;;7.28;;
50988;SDS011;37008;52.210;21.112;2022-08-21T02:40:36;10.57;;;7.32;;
50988;SDS011;37008;52.210;21.112;2022-08-21T02:43:03;7.72;;;6.93;;
50988;SDS011;37008;52.210;21.112;2022-08-21T02:45:30;8.75;;;6.32;;
50988;SDS011;37008;52.210;21.112;2022-08-21T02:47:57;7.60;;;6.75;;
50988;SDS011;37008;52.210;21.112;2022-08-21T02:50:29;9.70;;;6.85;;
50988;SDS011;37008;52.210;21.112;2022-08-21T02:53:13;7.03;;;6.30;;
50988;SDS011;37008;52.210;21.112;2022-08-21T02:55:41;11.45;;;6.97;;
50988;SDS011;37008;52.210;21.112;2022-08-21T02:58:08;8.55;;;6.38;;
50988;SDS011;37008;52.210;21.112;2022-08-21T03:00:35;8.93;;;6.45;;
50988;SDS011;37008;52.210;21.112;2022-08-21T03:03:02;8.70;;;6.57;;
50988;SDS011;37008;52.210;21.112;2022-08-21T03:05:28;12.35;;;7.57;;
50988;SDS011;37008;52.210;21.112;2022-08-21T03:07:56;9.45;;;7.13;;
50988;SDS011;37008;52.210;21.112;2022-08-21T03:10:23;7.85;;;6.80;;
50988;SDS011;37008;52.210;21.112;2022-08-21T03:12:50;8.70;;;6.78;;
50988;SDS011;37008;52.210;21.112;2022-08-21T03:15:17;7.65;;;6.55;;
50988;SDS011;37008;52.210;21.112;2022-08-21T03:17:44;10.23;;;7.38;;
50988;SDS011;37008;52.210;21.112;2022-08-21T03:20:11;9.60;;;7.00;;
50988;SDS011;37008;52.210;21.112;2022-08-21T03:22:39;9.75;;;7.15;;
50988;SDS011;37008;52.210;21.112;2022-08-21T03:25:05;12.60;;;7.25;;
50988;SDS011;37008;52.210;21.112;2022-08-21T03:27:31;9.75;;;6.95;;
50988;SDS011;37008;52.210;21.112;2022-08-21T03:29:58;8.02;;;6.63;;
50988;SDS011;37008;52.210;21.112;2022-08-21T03:32:24;9.70;;;7.28;;
50988;SDS011;37008;52.210;21.112;2022-08-21T03:34:50;8.77;;;7.50;;
50988;SDS011;37008;52.210;21.112;2022-08-21T03:37:16;8.88;;;8.07;;
50988;SDS011;37008;52.210;21.112;2022-08-21T03:39:43;10.90;;;7.65;;
50988;SDS011;37008;52.210;21.112;2022-08-21T03:42:09;9.05;;;7.70;;
50988;SDS011;37008;52.210;21.112;2022-08-21T03:44:35;10.98;;;7.90;;
50988;SDS011;37008;52.210;21.112;2022-08-21T03:47:02;12.65;;;7.28;;
50988;SDS011;37008;52.210;21.112;2022-08-21T03:49:28;8.43;;;6.68;;
50988;SDS011;37008;52.210;21.112;2022-08-21T03:51:54;8.13;;;7.32;;
50988;SDS011;37008;52.210;21.112;2022-08-21T03:54:20;8.63;;;7.63;;
50988;SDS011;37008;52.210;21.112;2022-08-21T03:56:46;9.20;;;7.50;;
50988;SDS011;37008;52.210;21.112;2022-08-21T03:59:12;9.35;;;6.68;;
50988;SDS011;37008;52.210;21.112;2022-08-21T04:01:38;10.15;;;7.32;;
50988;SDS011;37008;52.210;21.112;2022-08-21T04:04:04;9.10;;;7.22;;
50988;SDS011;37008;52.210;21.112;2022-08-21T04:06:30;11.30;;;7.43;;
50988;SDS011;37008;52.210;21.112;2022-08-21T04:08:56;10.15;;;7.35;;
50988;SDS011;37008;52.210;21.112;2022-08-21T04:11:22;9.63;;;7.35;;
50988;SDS011;37008;52.210;21.112;2022-08-21T04:13:47;8.95;;;6.63;;
50988;SDS011;37008;52.210;21.112;2022-08-21T04:16:13;9.02;;;6.88;;
50988;SDS011;37008;52.210;21.112;2022-08-21T04:18:39;13.75;;;7.88;;
50988;SDS011;37008;52.210;21.112;2022-08-21T04:21:05;9.57;;;6.72;;
50988;SDS011;37008;52.210;21.112;2022-08-21T04:23:34;8.30;;;6.65;;
50988;SDS011;37008;52.210;21.112;2022-08-21T04:26:00;10.00;;;6.82;;
50988;SDS011;37008;52.210;21.112;2022-08-21T04:28:26;9.38;;;7.15;;
50988;SDS011;37008;52.210;21.112;2022-08-21T04:30:53;9.63;;;6.95;;
50988;SDS011;37008;52.210;21.112;2022-08-21T04:33:19;9.48;;;7.15;;
50988;SDS011;37008;52.210;21.112;2022-08-21T04:35:46;10.65;;;6.78;;
50988;SDS011;37008;52.210;21.112;2022-08-21T04:38:12;10.75;;;6.90;;
50988;SDS011;37008;52.210;21.112;2022-08-21T04:40:38;9.40;;;6.80;;
50988;SDS011;37008;52.210;21.112;2022-08-21T04:43:05;8.50;;;6.82;;
50988;SDS011;37008;52.210;21.112;2022-08-21T04:45:34;7.72;;;6.53;;
50988;SDS011;37008;52.210;21.112;2022-08-21T04:48:05;7.70;;;6.30;;
50988;SDS011;37008;52.210;21.112;2022-08-21T04:50:47;10.25;;;6.05;;
50988;SDS011;37008;52.210;21.112;2022-08-21T04:53:26;8.07;;;5.85;;
50988;SDS011;37008;52.210;21.112;2022-08-21T04:56:01;9.35;;;6.47;;
50988;SDS011;37008;52.210;21.112;2022-08-21T04:58:33;6.68;;;5.97;;
50988;SDS011;37008;52.210;21.112;2022-08-21T05:01:01;7.60;;;5.68;;
50988;SDS011;37008;52.210;21.112;2022-08-21T05:03:28;6.38;;;5.45;;
50988;SDS011;37008;52.210;21.112;2022-08-21T05:05:56;8.80;;;5.45;;
50988;SDS011;37008;52.210;21.112;2022-08-21T05:08:23;11.18;;;5.57;;
50988;SDS011;37008;52.210;21.112;2022-08-21T05:10:50;6.78;;;4.65;;
50988;SDS011;37008;52.210;21.112;2022-08-21T05:13:16;6.82;;;4.95;;
50988;SDS011;37008;52.210;21.112;2022-08-21T05:15:42;6.80;;;4.75;;
50988;SDS011;37008;52.210;21.112;2022-08-21T05:18:08;7.47;;;4.65;;
50988;SDS011;37008;52.210;21.112;2022-08-21T05:20:34;9.35;;;5.30;;
50988;SDS011;37008;52.210;21.112;2022-08-21T05:23:00;7.63;;;4.63;;
50988;SDS011;37008;52.210;21.112;2022-08-21T05:25:27;12.15;;;4.80;;
50988;SDS011;37008;52.210;21.112;2022-08-21T05:27:52;6.10;;;4.60;;
50988;SDS011;37008;52.210;21.112;2022-08-21T05:30:19;8.68;;;4.75;;
50988;SDS011;37008;52.210;21.112;2022-08-21T05:32:45;7.30;;;4.45;;
50988;SDS011;37008;52.210;21.112;2022-08-21T05:35:12;7.45;;;4.63;;
50988;SDS011;37008;52.210;21.112;2022-08-21T05:37:38;5.20;;;4.00;;
50988;SDS011;37008;52.210;21.112;2022-08-21T05:40:05;5.93;;;4.30;;
50988;SDS011;37008;52.210;21.112;2022-08-21T05:42:33;5.15;;;4.30;;
50988;SDS011;37008;52.210;21.112;2022-08-21T05:44:58;8.05;;;4.43;;
50988;SDS011;37008;52.210;21.112;2022-08-21T05:47:24;6.13;;;4.60;;
50988;SDS011;37008;52.210;21.112;2022-08-21T05:49:50;5.47;;;4.38;;
50988;SDS011;37008;52.210;21.112;2022-08-21T05:52:19;4.93;;;4.32;;
50988;SDS011;37008;52.210;21.112;2022-08-21T05:54:46;6.40;;;4.20;;
50988;SDS011;37008;52.210;21.112;2022-08-21T05:57:11;5.35;;;3.95;;
50988;SDS011;37008;52.210;21.112;2022-08-21T05:59:37;5.63;;;4.38;;
50988;SDS011;37008;52.210;21.112;2022-08-21T06:02:03;7.70;;;4.18;;
50988;SDS011;37008;52.210;21.112;2022-08-21T06:04:28;6.75;;;4.00;;
50988;SDS011;37008;52.210;21.112;2022-08-21T06:06:54;6.15;;;3.92;;
50988;SDS011;37008;52.210;21.112;2022-08-21T06:09:20;7.38;;;4.03;;
50988;SDS011;37008;52.210;21.112;2022-08-21T06:11:45;5.28;;;3.90;;
50988;SDS011;37008;52.210;21.112;2022-08-21T06:14:13;6.50;;;4.00;;
50988;SDS011;37008;52.210;21.112;2022-08-21T06:16:39;7.43;;;3.67;;
50988;SDS011;37008;52.210;21.112;2022-08-21T06:19:05;9.68;;;4.45;;
50988;SDS011;37008;52.210;21.112;2022-08-21T06:21:31;8.23;;;4.43;;
50988;SDS011;37008;52.210;21.112;2022-08-21T06:23:56;6.80;;;3.85;;
50988;SDS011;37008;52.210;21.112;2022-08-21T06:26:22;8.88;;;3.78;;
50988;SDS011;37008;52.210;21.112;2022-08-21T06:28:48;5.18;;;4.40;;
50988;SDS011;37008;52.210;21.112;2022-08-21T06:31:15;7.20;;;3.97;;
50988;SDS011;37008;52.210;21.112;2022-08-21T06:33:49;8.90;;;3.88;;
50988;SDS011;37008;52.210;21.112;2022-08-21T06:36:15;5.03;;;3.88;;
50988;SDS011;37008;52.210;21.112;2022-08-21T06:38:44;5.93;;;3.97;;
50988;SDS011;37008;52.210;21.112;2022-08-21T06:41:10;6.32;;;4.00;;
50988;SDS011;37008;52.210;21.112;2022-08-21T06:43:35;8.38;;;4.15;;
50988;SDS011;37008;52.210;21.112;2022-08-21T06:46:02;8.07;;;4.47;;
50988;SDS011;37008;52.210;21.112;2022-08-21T06:48:27;7.85;;;4.20;;
50988;SDS011;37008;52.210;21.112;2022-08-21T06:50:54;5.70;;;4.10;;
50988;SDS011;37008;52.210;21.112;2022-08-21T06:53:21;9.18;;;4.57;;
50988;SDS011;37008;52.210;21.112;2022-08-21T06:55:46;5.90;;;4.15;;
50988;SDS011;37008;52.210;21.112;2022-08-21T06:58:13;6.40;;;4.22;;
50988;SDS011;37008;52.210;21.112;2022-08-21T07:00:41;7.20;;;4.43;;
50988;SDS011;37008;52.210;21.112;2022-08-21T07:03:16;5.97;;;3.95;;
50988;SDS011;37008;52.210;21.112;2022-08-21T07:05:46;6.93;;;4.30;;
50988;SDS011;37008;52.210;21.112;2022-08-21T07:08:12;5.88;;;4.00;;
50988;SDS011;37008;52.210;21.112;2022-08-21T07:10:38;6.10;;;4.40;;
50988;SDS011;37008;52.210;21.112;2022-08-21T07:13:03;7.65;;;4.03;;
50988;SDS011;37008;52.210;21.112;2022-08-21T07:15:30;5.38;;;3.80;;
50988;SDS011;37008;52.210;21.112;2022-08-21T07:17:56;6.47;;;4.30;;
50988;SDS011;37008;52.210;21.112;2022-08-21T07:20:22;10.35;;;3.80;;
50988;SDS011;37008;52.210;21.112;2022-08-21T07:22:48;8.05;;;4.28;;
50988;SDS011;37008;52.210;21.112;2022-08-21T07:25:13;8.43;;;4.22;;
50988;SDS011;37008;52.210;21.112;2022-08-21T07:27:39;7.90;;;4.18;;
50988;SDS011;37008;52.210;21.112;2022-08-21T07:30:06;7.50;;;3.85;;
50988;SDS011;37008;52.210;21.112;2022-08-21T07:32:32;11.18;;;4.32;;
50988;SDS011;37008;52.210;21.112;2022-08-21T07:34:58;6.43;;;3.97;;
50988;SDS011;37008;52.210;21.112;2022-08-21T07:37:23;6.57;;;4.25;;
50988;SDS011;37008;52.210;21.112;2022-08-21T07:39:49;6.07;;;4.25;;
50988;SDS011;37008;52.210;21.112;2022-08-21T07:42:16;7.03;;;4.40;;
50988;SDS011;37008;52.210;21.112;2022-08-21T07:44:42;7.05;;;3.92;;
50988;SDS011;37008;52.210;21.112;2022-08-21T07:47:08;6.40;;;4.03;;
50988;SDS011;37008;52.210;21.112;2022-08-21T07:49:33;5.28;;;3.80;;
50988;SDS011;37008;52.210;21.112;2022-08-21T07:51:59;4.35;;;3.58;;
50988;SDS011;37008;52.210;21.112;2022-08-21T07:54:25;7.28;;;3.97;;
50988;SDS011;37008;52.210;21.112;2022-08-21T07:56:51;5.40;;;3.78;;
50988;SDS011;37008;52.210;21.112;2022-08-21T07:59:16;9.30;;;4.03;;
50988;SDS011;37008;52.210;21.112;2022-08-21T08:01:42;5.55;;;4.10;;
50988;SDS011;37008;52.210;21.112;2022-08-21T08:04:08;4.25;;;3.85;;
50988;SDS011;37008;52.210;21.112;2022-08-21T08:06:33;8.75;;;4.30;;
50988;SDS011;37008;52.210;21.112;2022-08-21T08:08:59;10.63;;;3.45;;
50988;SDS011;37008;52.210;21.112;2022-08-21T08:11:28;6.65;;;4.13;;
50988;SDS011;37008;52.210;21.112;2022-08-21T08:13:54;7.65;;;4.32;;
50988;SDS011;37008;52.210;21.112;2022-08-21T08:16:21;6.78;;;3.92;;
50988;SDS011;37008;52.210;21.112;2022-08-21T08:18:47;6.65;;;4.07;;
50988;SDS011;37008;52.210;21.112;2022-08-21T08:21:14;5.53;;;3.97;;
50988;SDS011;37008;52.210;21.112;2022-08-21T08:23:40;5.70;;;3.85;;
50988;SDS011;37008;52.210;21.112;2022-08-21T08:26:06;9.38;;;3.90;;
50988;SDS011;37008;52.210;21.112;2022-08-21T08:28:32;8.90;;;3.80;;
50988;SDS011;37008;52.210;21.112;2022-08-21T08:30:59;5.65;;;3.58;;
50988;SDS011;37008;52.210;21.112;2022-08-21T08:33:25;6.50;;;3.65;;
50988;SDS011;37008;52.210;21.112;2022-08-21T08:35:51;8.32;;;3.80;;
50988;SDS011;37008;52.210;21.112;2022-08-21T08:38:18;5.78;;;3.80;;
50988;SDS011;37008;52.210;21.112;2022-08-21T08:43:38;9.07;;;4.07;;
50988;SDS011;37008;52.210;21.112;2022-08-21T08:46:13;4.32;;;3.60;;
50988;SDS011;37008;52.210;21.112;2022-08-21T08:48:51;6.25;;;3.30;;
50988;SDS011;37008;52.210;21.112;2022-08-21T08:51:22;7.32;;;3.35;;
50988;SDS011;37008;52.210;21.112;2022-08-21T08:53:53;4.85;;;3.22;;
50988;SDS011;37008;52.210;21.112;2022-08-21T08:56:26;6.40;;;3.20;;
50988;SDS011;37008;52.210;21.112;2022-08-21T08:58:55;3.33;;;2.65;;
50988;SDS011;37008;52.210;21.112;2022-08-21T09:01:26;7.32;;;3.30;;
50988;SDS011;37008;52.210;21.112;2022-08-21T09:03:52;5.97;;;3.10;;
50988;SDS011;37008;52.210;21.112;2022-08-21T09:25:37;3.35;;;2.75;;
50988;SDS011;37008;52.210;21.112;2022-08-21T09:28:20;4.95;;;3.15;;
50988;SDS011;37008;52.210;21.112;2022-08-21T09:30:46;7.35;;;2.97;;
50988;SDS011;37008;52.210;21.112;2022-08-21T09:33:12;8.18;;;3.15;;
50988;SDS011;37008;52.210;21.112;2022-08-21T09:35:48;6.47;;;3.10;;
50988;SDS011;37008;52.210;21.112;2022-08-21T09:38:31;4.55;;;3.00;;
50988;SDS011;37008;52.210;21.112;2022-08-21T09:41:00;8.18;;;2.90;;
50988;SDS011;37008;52.210;21.112;2022-08-21T09:43:28;3.25;;;2.67;;
50988;SDS011;37008;52.210;21.112;2022-08-21T09:46:12;3.33;;;2.33;;
50988;SDS011;37008;52.210;21.112;2022-08-21T09:48:47;9.07;;;2.88;;
50988;SDS011;37008;52.210;21.112;2022-08-21T09:51:16;4.80;;;2.90;;
50988;SDS011;37008;52.210;21.112;2022-08-21T09:53:45;3.92;;;2.80;;
50988;SDS011;37008;52.210;21.112;2022-08-21T09:56:21;4.88;;;2.58;;
50988;SDS011;37008;52.210;21.112;2022-08-21T09:59:18;3.92;;;2.67;;
50988;SDS011;37008;52.210;21.112;2022-08-21T10:01:47;7.93;;;3.40;;
50988;SDS011;37008;52.210;21.112;2022-08-21T10:04:15;8.05;;;2.53;;
50988;SDS011;37008;52.210;21.112;2022-08-21T10:06:46;7.38;;;2.63;;
50988;SDS011;37008;52.210;21.112;2022-08-21T10:09:13;3.45;;;2.35;;
50988;SDS011;37008;52.210;21.112;2022-08-21T10:11:42;5.55;;;2.80;;
50988;SDS011;37008;52.210;21.112;2022-08-21T10:22:17;3.67;;;2.53;;
50988;SDS011;37008;52.210;21.112;2022-08-21T10:25:37;3.35;;;2.40;;
50988;SDS011;37008;52.210;21.112;2022-08-21T10:42:28;4.95;;;2.70;;
50988;SDS011;37008;52.210;21.112;2022-08-21T10:47:49;9.85;;;2.80;;
50988;SDS011;37008;52.210;21.112;2022-08-21T10:56:15;3.10;;;2.25;;
50988;SDS011;37008;52.210;21.112;2022-08-21T10:58:58;3.25;;;2.58;;
50988;SDS011;37008;52.210;21.112;2022-08-21T11:01:49;3.83;;;2.50;;
50988;SDS011;37008;52.210;21.112;2022-08-21T11:07:21;6.45;;;2.58;;
50988;SDS011;37008;52.210;21.112;2022-08-21T11:09:54;5.80;;;2.60;;
50988;SDS011;37008;52.210;21.112;2022-08-21T11:12:28;3.17;;;2.28;;
50988;SDS011;37008;52.210;21.112;2022-08-21T11:20:59;3.25;;;2.45;;
50988;SDS011;37008;52.210;21.112;2022-08-21T11:23:43;3.22;;;2.33;;
50988;SDS011;37008;52.210;21.112;2022-08-21T11:34:28;3.40;;;2.42;;
50988;SDS011;37008;52.210;21.112;2022-08-21T11:37:14;3.85;;;2.50;;
50988;SDS011;37008;52.210;21.112;2022-08-21T11:40:04;5.35;;;2.17;;
50988;SDS011;37008;52.210;21.112;2022-08-21T11:50:46;4.80;;;2.60;;
50988;SDS011;37008;52.210;21.112;2022-08-21T11:53:15;4.30;;;2.25;;
50988;SDS011;37008;52.210;21.112;2022-08-21T11:55:49;6.20;;;2.40;;
50988;SDS011;37008;52.210;21.112;2022-08-21T12:00:54;7.38;;;2.50;;
50988;SDS011;37008;52.210;21.112;2022-08-21T12:03:30;3.42;;;2.70;;
50988;SDS011;37008;52.210;21.112;2022-08-21T12:05:59;4.63;;;2.67;;
50988;SDS011;37008;52.210;21.112;2022-08-21T12:13:54;4.93;;;2.53;;
50988;SDS011;37008;52.210;21.112;2022-08-21T12:16:29;3.40;;;2.20;;
50988;SDS011;37008;52.210;21.112;2022-08-21T12:21:33;3.75;;;2.15;;
50988;SDS011;37008;52.210;21.112;2022-08-21T12:26:49;5.15;;;2.63;;
50988;SDS011;37008;52.210;21.112;2022-08-21T12:29:21;3.72;;;2.85;;
50988;SDS011;37008;52.210;21.112;2022-08-21T12:32:00;5.85;;;2.30;;
50988;SDS011;37008;52.210;21.112;2022-08-21T12:34:37;5.40;;;2.33;;
50988;SDS011;37008;52.210;21.112;2022-08-21T12:37:30;4.47;;;2.17;;
50988;SDS011;37008;52.210;21.112;2022-08-21T12:40:00;4.95;;;2.70;;
50988;SDS011;37008;52.210;21.112;2022-08-21T12:42:37;4.38;;;2.30;;
50988;SDS011;37008;52.210;21.112;2022-08-21T12:45:17;4.95;;;2.53;;
50988;SDS011;37008;52.210;21.112;2022-08-21T12:48:05;3.75;;;2.30;;
50988;SDS011;37008;52.210;21.112;2022-08-21T12:50:52;7.38;;;2.58;;
50988;SDS011;37008;52.210;21.112;2022-08-21T12:56:01;4.95;;;2.80;;
50988;SDS011;37008;52.210;21.112;2022-08-21T12:58:52;3.67;;;2.38;;
50988;SDS011;37008;52.210;21.112;2022-08-21T13:01:23;4.25;;;2.38;;
50988;SDS011;37008;52.210;21.112;2022-08-21T13:03:52;4.70;;;2.58;;
50988;SDS011;37008;52.210;21.112;2022-08-21T13:06:23;3.58;;;2.95;;
50988;SDS011;37008;52.210;21.112;2022-08-21T13:09:15;5.30;;;2.40;;
50988;SDS011;37008;52.210;21.112;2022-08-21T13:11:45;2.72;;;2.25;;
50988;SDS011;37008;52.210;21.112;2022-08-21T13:14:34;3.80;;;2.40;;
50988;SDS011;37008;52.210;21.112;2022-08-21T13:17:09;7.53;;;2.58;;
50988;SDS011;37008;52.210;21.112;2022-08-21T13:19:52;3.92;;;2.30;;
50988;SDS011;37008;52.210;21.112;2022-08-21T13:22:42;5.53;;;2.10;;
50988;SDS011;37008;52.210;21.112;2022-08-21T13:25:10;2.83;;;2.15;;
50988;SDS011;37008;52.210;21.112;2022-08-21T13:30:46;4.00;;;2.10;;
50988;SDS011;37008;52.210;21.112;2022-08-21T13:33:15;4.78;;;2.42;;
50988;SDS011;37008;52.210;21.112;2022-08-21T13:35:51;6.00;;;2.28;;
50988;SDS011;37008;52.210;21.112;2022-08-21T13:38:40;4.05;;;2.40;;
50988;SDS011;37008;52.210;21.112;2022-08-21T13:41:19;2.45;;;2.25;;
50988;SDS011;37008;52.210;21.112;2022-08-21T13:46:35;7.38;;;2.45;;
50988;SDS011;37008;52.210;21.112;2022-08-21T13:49:10;4.75;;;2.33;;
50988;SDS011;37008;52.210;21.112;2022-08-21T13:52:01;5.05;;;2.17;;
50988;SDS011;37008;52.210;21.112;2022-08-21T13:54:39;2.85;;;2.28;;
50988;SDS011;37008;52.210;21.112;2022-08-21T14:00:25;5.18;;;2.75;;
50988;SDS011;37008;52.210;21.112;2022-08-21T14:03:35;4.20;;;2.60;;
50988;SDS011;37008;52.210;21.112;2022-08-21T14:06:21;3.55;;;2.13;;
50988;SDS011;37008;52.210;21.112;2022-08-21T14:09:11;2.92;;;2.13;;
50988;SDS011;37008;52.210;21.112;2022-08-21T14:11:59;4.15;;;2.28;;
50988;SDS011;37008;52.210;21.112;2022-08-21T14:14:40;6.30;;;2.60;;
50988;SDS011;37008;52.210;21.112;2022-08-21T14:17:09;4.68;;;3.30;;
50988;SDS011;37008;52.210;21.112;2022-08-21T14:19:45;3.60;;;3.00;;
50988;SDS011;37008;52.210;21.112;2022-08-21T14:30:36;4.63;;;2.40;;
50988;SDS011;37008;52.210;21.112;2022-08-21T14:33:10;4.35;;;2.40;;
50988;SDS011;37008;52.210;21.112;2022-08-21T14:35:55;3.05;;;2.15;;
50988;SDS011;37008;52.210;21.112;2022-08-21T14:38:22;2.63;;;2.08;;
50988;SDS011;37008;52.210;21.112;2022-08-21T14:40:51;3.65;;;2.30;;
50988;SDS011;37008;52.210;21.112;2022-08-21T14:43:38;3.85;;;2.10;;
50988;SDS011;37008;52.210;21.112;2022-08-21T14:46:03;3.08;;;2.20;;
50988;SDS011;37008;52.210;21.112;2022-08-21T14:48:29;3.03;;;1.98;;
50988;SDS011;37008;52.210;21.112;2022-08-21T14:50:55;2.95;;;2.20;;
50988;SDS011;37008;52.210;21.112;2022-08-21T14:53:21;6.18;;;2.17;;
50988;SDS011;37008;52.210;21.112;2022-08-21T14:55:46;2.20;;;2.00;;
50988;SDS011;37008;52.210;21.112;2022-08-21T14:58:31;2.40;;;1.98;;
50988;SDS011;37008;52.210;21.112;2022-08-21T15:00:59;3.22;;;2.20;;
50988;SDS011;37008;52.210;21.112;2022-08-21T15:03:28;3.60;;;2.30;;
50988;SDS011;37008;52.210;21.112;2022-08-21T15:05:54;2.40;;;2.00;;
50988;SDS011;37008;52.210;21.112;2022-08-21T15:08:20;4.55;;;2.20;;
50988;SDS011;37008;52.210;21.112;2022-08-21T15:10:45;3.58;;;2.10;;
50988;SDS011;37008;52.210;21.112;2022-08-21T15:13:12;2.72;;;1.80;;
50988;SDS011;37008;52.210;21.112;2022-08-21T15:15:39;2.33;;;2.08;;
50988;SDS011;37008;52.210;21.112;2022-08-21T15:18:07;5.93;;;1.80;;
50988;SDS011;37008;52.210;21.112;2022-08-21T15:20:34;4.40;;;2.20;;
50988;SDS011;37008;52.210;21.112;2022-08-21T15:23:00;3.45;;;2.15;;
50988;SDS011;37008;52.210;21.112;2022-08-21T15:25:26;3.85;;;1.80;;
50988;SDS011;37008;52.210;21.112;2022-08-21T15:27:52;4.40;;;2.15;;
50988;SDS011;37008;52.210;21.112;2022-08-21T15:30:18;4.55;;;2.13;;
50988;SDS011;37008;52.210;21.112;2022-08-21T15:32:43;4.22;;;2.38;;
50988;SDS011;37008;52.210;21.112;2022-08-21T15:35:09;2.85;;;1.90;;
50988;SDS011;37008;52.210;21.112;2022-08-21T15:37:35;2.67;;;2.00;;
50988;SDS011;37008;52.210;21.112;2022-08-21T15:40:00;2.20;;;1.88;;
50988;SDS011;37008;52.210;21.112;2022-08-21T15:42:27;5.00;;;2.13;;
50988;SDS011;37008;52.210;21.112;2022-08-21T15:44:54;3.05;;;2.03;;
50988;SDS011;37008;52.210;21.112;2022-08-21T15:47:21;7.80;;;2.60;;
50988;SDS011;37008;52.210;21.112;2022-08-21T15:49:50;3.55;;;2.50;;
50988;SDS011;37008;52.210;21.112;2022-08-21T15:52:18;3.10;;;2.40;;
50988;SDS011;37008;52.210;21.112;2022-08-21T15:54:45;5.93;;;3.03;;
50988;SDS011;37008;52.210;21.112;2022-08-21T15:57:11;3.13;;;2.65;;
50988;SDS011;37008;52.210;21.112;2022-08-21T15:59:40;6.28;;;2.88;;
50988;SDS011;37008;52.210;21.112;2022-08-21T16:02:12;6.18;;;2.63;;
50988;SDS011;37008;52.210;21.112;2022-08-21T16:04:40;4.93;;;3.20;;
50988;SDS011;37008;52.210;21.112;2022-08-21T16:07:06;4.57;;;2.72;;
50988;SDS011;37008;52.210;21.112;2022-08-21T16:09:32;5.60;;;2.70;;
50988;SDS011;37008;52.210;21.112;2022-08-21T16:11:58;3.80;;;2.40;;
50988;SDS011;37008;52.210;21.112;2022-08-21T16:14:25;5.05;;;2.90;;
50988;SDS011;37008;52.210;21.112;2022-08-21T16:16:53;4.47;;;2.72;;
50988;SDS011;37008;52.210;21.112;2022-08-21T16:19:19;4.15;;;2.72;;
50988;SDS011;37008;52.210;21.112;2022-08-21T16:21:46;5.05;;;2.95;;
50988;SDS011;37008;52.210;21.112;2022-08-21T16:24:12;5.07;;;3.00;;
50988;SDS011;37008;52.210;21.112;2022-08-21T16:26:37;3.75;;;2.60;;
50988;SDS011;37008;52.210;21.112;2022-08-21T16:29:03;5.80;;;3.38;;
50988;SDS011;37008;52.210;21.112;2022-08-21T16:31:31;5.93;;;2.85;;
50988;SDS011;37008;52.210;21.112;2022-08-21T16:33:57;4.80;;;3.30;;
50988;SDS011;37008;52.210;21.112;2022-08-21T16:36:24;4.50;;;3.17;;
50988;SDS011;37008;52.210;21.112;2022-08-21T16:38:51;4.63;;;3.08;;
50988;SDS011;37008;52.210;21.112;2022-08-21T16:41:18;8.70;;;3.30;;